createdAt,value
2023-03-16T00:01:51.630Z,22.70
2023-03-16T00:06:44.515Z,20.30
2023-03-16T00:11:37.364Z,19.30
2023-03-16T00:16:30.298Z,28.80
2023-03-16T00:21:23.200Z,24.10
2023-03-16T00:26:16.089Z,20.30
2023-03-16T00:31:12.035Z,27.20
2023-03-16T00:36:09.482Z,18.90
2023-03-16T00:41:04.783Z,29.30
2023-03-16T00:46:06.884Z,18.60
2023-03-16T00:50:59.934Z,23.00
2023-03-16T00:55:53.615Z,20.00
2023-03-16T01:00:47.410Z,23.30
2023-03-16T01:05:44.468Z,22.00
2023-03-16T01:10:38.013Z,21.70
2023-03-16T01:15:33.158Z,19.90
2023-03-16T01:20:26.983Z,21.30
2023-03-16T01:25:21.380Z,17.10
2023-03-16T01:30:15.036Z,19.80
2023-03-16T01:35:09.382Z,19.90
2023-03-16T01:40:02.400Z,18.70
2023-03-16T01:45:02.166Z,13.90
2023-03-16T01:50:02.032Z,17.70
2023-03-16T01:55:02.215Z,24.10
2023-03-16T02:00:19.259Z,22.30
2023-03-16T02:05:43.124Z,24.20
2023-03-16T02:10:38.686Z,20.00
2023-03-16T02:15:31.756Z,18.30
2023-03-16T02:20:48.882Z,17.40
2023-03-16T02:26:06.230Z,17.50
2023-03-16T02:30:59.429Z,13.00
2023-03-16T02:35:52.503Z,23.50
2023-03-16T02:40:58.288Z,19.20
2023-03-16T02:45:55.039Z,19.80
2023-03-16T02:50:52.968Z,20.40
2023-03-16T02:55:46.547Z,21.40
2023-03-16T03:00:40.044Z,18.00
2023-03-16T03:05:33.244Z,20.30
2023-03-16T03:10:26.379Z,20.50
2023-03-16T03:15:21.856Z,20.00
2023-03-16T03:20:24.440Z,16.40
2023-03-16T03:25:21.228Z,23.40
2023-03-16T03:30:18.430Z,24.60
2023-03-16T03:35:14.016Z,21.00
2023-03-16T03:40:08.753Z,16.90
2023-03-16T03:45:01.862Z,18.40
2023-03-16T03:49:54.954Z,28.10
2023-03-16T03:54:48.764Z,20.50
2023-03-16T03:59:44.119Z,21.70
2023-03-16T04:04:55.479Z,17.30
2023-03-16T04:09:48.479Z,27.90
2023-03-16T04:14:59.468Z,24.50
2023-03-16T04:19:55.357Z,26.80
2023-03-16T04:24:48.417Z,31.20
2023-03-16T04:29:41.410Z,23.00
2023-03-16T04:34:34.869Z,26.00
2023-03-16T04:39:29.861Z,25.30
2023-03-16T04:44:23.181Z,27.40
2023-03-16T04:49:16.439Z,26.60
2023-03-16T04:54:11.543Z,22.40
2023-03-16T04:59:07.229Z,27.40
2023-03-16T05:04:11.553Z,25.80
2023-03-16T05:09:42.677Z,25.30
2023-03-16T05:21:42.720Z,24.60
2023-03-16T05:26:43.228Z,20.80
2023-03-16T05:31:52.760Z,23.00
2023-03-16T05:36:49.808Z,20.50
2023-03-16T05:41:43.902Z,22.00
2023-03-16T05:47:18.323Z,25.90
2023-03-16T05:52:17.822Z,23.30
2023-03-16T05:57:10.822Z,22.40
2023-03-16T06:02:04.606Z,28.10
2023-03-16T06:06:58.748Z,22.00
2023-03-16T06:11:52.882Z,34.80
2023-03-16T06:16:46.142Z,33.00
2023-03-16T06:21:39.826Z,27.20
2023-03-16T06:26:39.714Z,25.60
2023-03-16T06:31:34.623Z,24.90
2023-03-16T06:36:28.553Z,31.30
2023-03-16T06:41:24.025Z,31.10
2023-03-16T06:46:17.258Z,19.20
2023-03-16T06:51:10.822Z,28.30
2023-03-16T06:56:03.785Z,27.30
2023-03-16T07:01:03.672Z,22.10
2023-03-16T07:05:56.719Z,22.60
2023-03-16T07:10:49.600Z,20.70
2023-03-16T07:15:42.413Z,20.00
2023-03-16T07:20:35.742Z,20.50
2023-03-16T07:25:31.839Z,21.60
2023-03-16T07:30:25.779Z,21.80
2023-03-16T07:35:19.041Z,19.40
2023-03-16T07:40:14.055Z,13.60
2023-03-16T07:45:08.300Z,18.80
2023-03-16T07:50:09.065Z,21.00
2023-03-16T07:55:05.507Z,12.80
2023-03-16T07:59:59.648Z,12.90
2023-03-16T08:04:55.865Z,13.80
2023-03-16T08:09:53.723Z,11.90
2023-03-16T08:14:50.671Z,9.90
2023-03-16T08:19:56.000Z,11.90
2023-03-16T08:24:50.694Z,12.40
2023-03-16T08:29:44.205Z,16.50
2023-03-16T08:34:40.137Z,11.30
2023-03-16T08:39:35.807Z,11.50
2023-03-16T08:44:33.194Z,13.20
2023-03-16T08:49:27.432Z,10.60
2023-03-16T08:54:27.497Z,16.70
2023-03-16T08:59:29.770Z,14.10
2023-03-16T09:04:23.892Z,18.30
2023-03-16T09:09:17.970Z,13.90
2023-03-16T09:14:11.686Z,14.40
2023-03-16T09:19:05.875Z,12.60
2023-03-16T09:23:58.910Z,11.10
2023-03-16T09:28:51.924Z,15.10
2023-03-16T09:33:44.822Z,10.40
2023-03-16T09:38:38.570Z,11.20
2023-03-16T09:43:59.168Z,11.80
2023-03-16T09:48:53.012Z,7.90
2023-03-16T09:53:48.846Z,10.30
2023-03-16T09:58:41.948Z,10.50
2023-03-16T10:04:09.949Z,8.20
2023-03-16T10:09:29.581Z,7.60
2023-03-16T10:14:34.872Z,6.00
2023-03-16T10:19:40.671Z,5.40
2023-03-16T10:24:53.995Z,5.90
2023-03-16T10:29:47.474Z,6.00
2023-03-16T10:34:40.204Z,5.30
2023-03-16T10:39:43.048Z,4.30
2023-03-16T10:44:41.149Z,3.70
2023-03-16T10:49:39.405Z,5.30
2023-03-16T10:54:35.998Z,4.90
2023-03-16T10:59:34.464Z,4.50
2023-03-16T11:04:32.630Z,3.70
2023-03-16T11:09:35.968Z,3.90
2023-03-16T11:14:30.202Z,4.10
2023-03-16T11:19:29.334Z,7.60
2023-03-16T11:24:43.633Z,4.10
2023-03-16T11:29:36.539Z,3.50
2023-03-16T11:34:32.020Z,3.60
2023-03-16T11:40:00.650Z,7.50
2023-03-16T11:45:17.315Z,5.30
2023-03-16T11:55:37.070Z,4.20
2023-03-16T12:00:48.908Z,5.00
2023-03-16T12:06:16.968Z,5.20
2023-03-16T12:11:31.175Z,6.50
2023-03-16T12:16:35.952Z,7.40
2023-03-16T12:21:43.592Z,6.30
2023-03-16T12:26:42.130Z,9.90
2023-03-16T12:31:46.063Z,9.10
2023-03-16T12:36:58.838Z,7.60
2023-03-16T12:42:00.343Z,5.90
2023-03-16T12:47:00.493Z,8.60
2023-03-16T12:52:05.111Z,10.70
2023-03-16T12:57:09.713Z,11.30
2023-03-16T13:02:06.858Z,10.60
2023-03-16T13:07:07.806Z,9.00
2023-03-16T13:12:05.133Z,6.40
2023-03-16T13:17:25.108Z,8.00
2023-03-16T13:22:23.838Z,6.80
2023-03-16T13:27:29.486Z,8.90
2023-03-16T13:32:23.301Z,8.80
2023-03-16T13:37:19.550Z,10.60
2023-03-16T13:42:22.281Z,7.40
2023-03-16T13:47:19.493Z,9.60
2023-03-16T13:52:20.968Z,5.60
2023-03-16T13:57:14.499Z,5.40
2023-03-16T14:02:23.246Z,8.40
2023-03-16T14:07:18.725Z,5.70
2023-03-16T14:12:16.433Z,7.20
2023-03-16T14:17:19.472Z,8.60
2023-03-16T14:22:16.468Z,7.60
2023-03-16T14:27:41.652Z,4.80
2023-03-16T14:32:34.341Z,6.10
2023-03-16T14:37:36.124Z,6.80
2023-03-16T14:42:31.379Z,9.10
2023-03-16T14:47:29.417Z,6.80
2023-03-16T14:52:27.792Z,6.80
2023-03-16T14:57:20.715Z,8.90
2023-03-16T15:02:31.241Z,6.30
2023-03-16T15:07:29.789Z,7.50
2023-03-16T15:12:26.178Z,9.40
2023-03-16T15:17:19.235Z,5.20
2023-03-16T15:22:14.184Z,6.50
2023-03-16T15:27:20.038Z,8.60
2023-03-16T15:32:15.768Z,9.10
2023-03-16T15:37:30.831Z,7.80
2023-03-16T15:42:26.086Z,9.10
2023-03-16T15:47:19.018Z,10.00
2023-03-16T15:52:28.014Z,12.60
2023-03-16T15:57:21.275Z,6.70
2023-03-16T16:02:32.232Z,8.20
2023-03-16T16:07:25.575Z,7.50
2023-03-16T16:12:26.980Z,10.30
2023-03-16T16:17:36.478Z,5.90
2023-03-16T16:22:38.975Z,9.00
2023-03-16T16:27:31.718Z,7.90
2023-03-16T16:32:25.766Z,9.40
2023-03-16T16:37:18.514Z,7.90
2023-03-16T16:42:17.748Z,3.50
2023-03-16T16:47:22.529Z,4.80
2023-03-16T16:52:18.685Z,6.70
2023-03-16T16:57:21.155Z,5.40
2023-03-16T17:02:38.791Z,6.00
2023-03-16T17:07:32.876Z,23.30
2023-03-16T17:12:25.910Z,14.50
2023-03-16T17:17:20.327Z,5.60
2023-03-16T17:22:28.446Z,7.30
2023-03-16T17:27:33.076Z,22.50
2023-03-16T17:32:26.605Z,9.00
2023-03-16T17:37:22.192Z,14.00
2023-03-16T17:42:18.640Z,13.30
2023-03-16T17:47:15.641Z,14.90
2023-03-16T17:52:22.064Z,9.80
2023-03-16T17:57:19.069Z,11.10
2023-03-16T18:02:46.727Z,12.30
2023-03-16T18:07:39.575Z,15.60
2023-03-16T18:12:32.303Z,17.60
2023-03-16T18:17:30.179Z,16.00
2023-03-16T18:22:25.172Z,15.10
2023-03-16T18:27:18.138Z,12.90
2023-03-16T18:32:27.319Z,10.70
2023-03-16T18:37:26.706Z,13.50
2023-03-16T18:42:25.881Z,12.70
2023-03-16T18:47:23.119Z,10.10
2023-03-16T18:52:21.069Z,14.30
2023-03-16T18:57:28.098Z,14.50
2023-03-16T19:02:37.370Z,15.30
2023-03-16T19:07:36.130Z,17.90
2023-03-16T19:12:29.067Z,23.70
2023-03-16T19:17:23.446Z,17.30
2023-03-16T19:22:22.367Z,20.90
2023-03-16T19:27:23.574Z,18.50
2023-03-16T19:32:20.780Z,17.20
2023-03-16T19:37:15.949Z,20.80
2023-03-16T19:42:23.062Z,15.50
2023-03-16T19:47:37.540Z,22.80
2023-03-16T19:52:32.789Z,15.90
2023-03-16T19:57:25.602Z,13.00
2023-03-16T20:02:31.111Z,17.00
2023-03-16T20:07:23.829Z,18.90
2023-03-16T20:12:25.580Z,14.80
2023-03-16T20:17:23.577Z,17.70
2023-03-16T20:22:21.969Z,12.10
2023-03-16T20:27:16.274Z,14.40
2023-03-16T20:32:20.174Z,14.10
2023-03-16T20:37:24.794Z,21.60
2023-03-16T20:42:20.791Z,31.50
2023-03-16T20:47:17.856Z,24.70
2023-03-16T20:52:22.798Z,27.40
2023-03-16T20:57:22.703Z,31.70
2023-03-16T21:02:32.106Z,38.30
2023-03-16T21:07:24.777Z,24.70
2023-03-16T21:12:34.040Z,33.30
2023-03-16T21:17:35.739Z,34.90
2023-03-16T21:22:34.970Z,33.50
2023-03-16T21:27:31.969Z,38.70
2023-03-16T21:32:30.893Z,38.10
2023-03-16T21:37:25.013Z,38.00
2023-03-16T21:42:18.252Z,37.90
2023-03-16T21:47:29.364Z,38.60
2023-03-16T21:52:24.648Z,42.00
2023-03-16T21:57:17.995Z,38.10
2023-03-16T22:02:29.044Z,40.30
2023-03-16T22:07:23.208Z,38.40
2023-03-16T22:12:15.938Z,49.40
2023-03-16T22:17:20.262Z,42.10
2023-03-16T22:22:18.043Z,51.60
2023-03-16T22:27:22.695Z,48.90
2023-03-16T22:32:19.130Z,51.20
2023-03-16T22:37:16.386Z,66.60
2023-03-16T22:42:32.986Z,61.90
2023-03-16T22:47:32.640Z,58.40
2023-03-16T22:52:31.360Z,64.70
2023-03-16T22:57:24.333Z,56.60
2023-03-16T23:02:19.506Z,60.20
2023-03-16T23:07:14.284Z,56.00
2023-03-16T23:12:15.724Z,52.90
2023-03-16T23:17:27.109Z,49.70
2023-03-16T23:22:19.898Z,40.30
2023-03-16T23:27:18.551Z,42.10
2023-03-16T23:32:12.724Z,51.40
2023-03-16T23:37:05.891Z,49.10
2023-03-16T23:41:58.549Z,44.90
2023-03-16T23:46:54.658Z,54.80
2023-03-16T23:51:47.942Z,55.80
2023-03-16T23:56:57.179Z,55.70
